エカテリンブルク の空港の天気 - METARとTAF

コルツォヴォ空港 ( USSS / SVX ) - ロシア エカテリンブルク
飛行場実況気象(Metar)
観測時間10/15 22:00 YEKT (10/15 17:00 UTC)
風向・風速北西 3m/s
視程10km以上
天気現象
なし
気温5℃
湿度87%
気圧1004hPa
METARUSSS 151700Z 32003MPS CAVOK 05/03 Q1004 R26R/110060 NOSIG RMK QFE732/0977
過去の天気等 Google飛行場航空写真 Wunderground天気予報

過去48時間のMETAR

飛行場予報(TAF)
発表時間: 10/15 21:57 YEKT (10/15 16:57 UTC)
予報対象時間: 15日23時 YEKT ~ 16日23時 YEKT
風向・風速北西 3m/s 瞬間風速 12m/s
視程10km以上
全天の8割程度の雲 雲底高度 490m
全天の4割程度の積乱雲 雲底高度 610m
16日5時 YEKT ~ 16日23時 YEKT に一時的に
風向・風速北西 5m/s 瞬間風速 15m/s
天気現象弱いしゅう雨雪
TAF USSS 151657Z 1518/1618 31003G12MPS 9999 BKN016 SCT020CB
TEMPO 1600/1618 32005G15MPS -SHRASN